createdAt,value
2022-11-16T08:54:52.313Z,79.88
2022-11-16T08:55:53.693Z,77.73
2022-11-16T08:56:55.156Z,78.58
2022-11-16T08:57:56.572Z,77.50
2022-11-16T08:58:59.425Z,78.02
2022-11-16T09:00:04.275Z,77.44
2022-11-16T09:01:14.768Z,75.97
2022-11-16T09:02:16.219Z,73.71
2022-11-16T09:03:17.613Z,71.99
2022-11-16T09:04:19.001Z,69.58
2022-11-16T09:05:23.125Z,66.71
2022-11-16T09:06:25.865Z,63.64
2022-11-16T09:07:27.312Z,61.75
2022-11-16T09:08:28.700Z,60.29
2022-11-16T09:09:30.108Z,58.82
2022-11-16T09:10:35.817Z,57.70
2022-11-16T09:11:37.479Z,57.20
2022-11-16T09:12:39.124Z,55.08
2022-11-16T09:13:40.540Z,54.51
2022-11-16T09:14:42.208Z,52.57
2022-11-16T09:15:44.949Z,51.93
2022-11-16T09:16:46.327Z,51.24
2022-11-16T09:17:47.716Z,50.84
2022-11-16T09:18:51.099Z,52.40
2022-11-16T09:19:52.492Z,51.32
2022-11-16T09:20:57.701Z,49.64
2022-11-16T09:21:59.121Z,51.34
2022-11-16T09:23:00.560Z,52.83
2022-11-16T09:24:03.023Z,52.02
2022-11-16T09:25:05.137Z,50.64
2022-11-16T09:26:06.656Z,49.77
2022-11-16T09:27:08.318Z,50.15
2022-11-16T09:28:11.073Z,52.54
2022-11-16T09:29:14.683Z,56.23
2022-11-16T09:30:17.511Z,58.81
2022-11-16T09:31:23.148Z,58.91
2022-11-16T09:32:25.019Z,55.99
2022-11-16T09:33:28.528Z,54.90
2022-11-16T09:34:30.108Z,54.16
2022-11-16T09:35:33.356Z,51.65
2022-11-16T09:36:38.542Z,50.48
2022-11-16T09:37:39.946Z,49.41
2022-11-16T09:39:19.002Z,46.55
2022-11-16T09:40:06.380Z,44.62
2022-11-16T09:41:16.700Z,42.33
2022-11-16T09:42:36.910Z,44.51
2022-11-16T09:43:53.536Z,47.10
2022-11-16T09:45:05.131Z,47.75
2022-11-16T09:46:18.087Z,51.97
2022-11-16T09:47:25.497Z,55.96
2022-11-16T09:48:27.730Z,56.23
2022-11-16T09:49:33.228Z,57.71
2022-11-16T09:51:01.712Z,60.03
2022-11-16T09:52:08.349Z,60.60
2022-11-16T09:53:20.393Z,60.52
2022-11-16T09:54:30.563Z,60.70
2022-11-16T09:55:46.707Z,62.79
2022-11-16T09:56:53.725Z,63.61
2022-11-16T09:57:59.549Z,64.75
2022-11-16T09:59:36.270Z,67.54
2022-11-16T10:00:41.526Z,66.63
2022-11-16T10:01:49.103Z,68.63
2022-11-16T10:03:01.246Z,69.88
2022-11-16T10:04:17.320Z,71.26
2022-11-16T10:05:28.038Z,71.87
2022-11-16T10:06:41.651Z,73.20
2022-11-16T10:07:50.320Z,72.79
2022-11-16T10:08:56.549Z,73.58
2022-11-16T10:10:02.370Z,74.33
2022-11-16T10:11:12.287Z,75.51
2022-11-16T10:12:37.894Z,76.20
2022-11-16T10:14:04.190Z,77.53
2022-11-16T10:15:36.731Z,78.12
2022-11-16T10:16:48.477Z,78.97
2022-11-16T10:18:11.761Z,75.54
2022-11-16T10:19:25.569Z,74.83
2022-11-16T10:20:45.647Z,73.93
2022-11-16T10:22:14.783Z,73.01
2022-11-16T10:23:22.310Z,69.62
2022-11-16T10:24:50.897Z,71.26
2022-11-16T10:26:27.089Z,71.65
2022-11-16T10:27:32.800Z,72.81
2022-11-16T10:28:53.001Z,71.67
2022-11-16T10:30:03.823Z,71.63
2022-11-16T10:31:37.763Z,73.07
2022-11-16T10:33:10.883Z,76.43
2022-11-16T10:34:22.774Z,75.75
2022-11-16T10:35:44.192Z,77.42
2022-11-16T10:36:46.145Z,75.18
2022-11-16T10:37:51.897Z,70.71
2022-11-16T10:38:59.742Z,68.93
2022-11-16T10:40:15.238Z,71.13
2022-11-16T10:41:18.966Z,65.77
2022-11-16T10:42:30.843Z,62.91
2022-11-16T10:43:33.235Z,61.04
2022-11-16T10:44:50.248Z,60.32
2022-11-16T10:46:04.557Z,61.12
2022-11-16T10:47:53.560Z,55.90
2022-11-16T10:49:16.717Z,55.34
2022-11-16T10:50:33.206Z,54.18
2022-11-16T10:51:34.792Z,52.74
2022-11-16T10:52:36.148Z,55.43
2022-11-16T10:53:47.190Z,59.26
2022-11-16T10:54:48.590Z,60.13
2022-11-16T10:56:09.659Z,62.01
2022-11-16T10:57:17.738Z,60.90
2022-11-16T10:58:19.087Z,60.56
2022-11-16T10:59:21.367Z,62.18
2022-11-16T11:00:41.657Z,61.98
2022-11-16T11:01:51.058Z,64.27
2022-11-16T11:02:52.392Z,67.04
2022-11-16T11:03:54.058Z,67.95
2022-11-16T11:05:02.504Z,67.74
2022-11-16T11:06:04.328Z,68.48
2022-11-16T11:07:31.735Z,69.77
2022-11-16T11:08:33.327Z,68.64
2022-11-16T11:09:38.828Z,69.16
2022-11-16T11:10:41.907Z,65.94
2022-11-16T11:12:16.123Z,60.06
2022-11-16T11:13:26.957Z,57.45
2022-11-16T11:14:28.358Z,60.76
2022-11-16T11:15:29.912Z,57.73
2022-11-16T11:16:31.660Z,57.93
2022-11-16T11:17:35.384Z,59.46
2022-11-16T11:18:36.909Z,56.52
2022-11-16T11:19:38.321Z,56.47
2022-11-16T11:20:45.463Z,54.57
2022-11-16T11:21:47.380Z,53.49
2022-11-16T11:22:57.865Z,51.17
2022-11-16T11:24:37.284Z,50.94
2022-11-16T11:25:34.509Z,50.21
2022-11-16T11:26:40.324Z,51.48
2022-11-16T11:27:41.822Z,51.33
2022-11-16T11:28:53.345Z,53.96
2022-11-16T11:29:58.597Z,52.07
2022-11-16T11:31:03.665Z,52.67
2022-11-16T11:32:08.157Z,54.93
2022-11-16T11:33:12.646Z,54.21
2022-11-16T11:34:29.063Z,53.53
2022-11-16T11:35:32.819Z,54.19
2022-11-16T11:36:40.402Z,55.70
2022-11-16T11:37:42.155Z,58.33
2022-11-16T11:39:12.766Z,58.47
2022-11-16T11:40:23.972Z,59.28
2022-11-16T11:41:28.421Z,60.66
2022-11-16T11:42:29.911Z,61.46
2022-11-16T11:43:34.241Z,61.27
2022-11-16T11:44:50.186Z,61.50
2022-11-16T11:46:03.625Z,62.02
2022-11-16T11:48:57.146Z,60.40
2022-11-16T11:50:16.575Z,60.99
2022-11-16T11:51:26.934Z,58.92
2022-11-16T11:52:39.108Z,56.55
2022-11-16T11:53:51.721Z,55.68
2022-11-16T11:54:56.038Z,55.03
2022-11-16T11:55:59.675Z,55.00
2022-11-16T11:57:03.048Z,54.27
2022-11-16T11:58:06.142Z,54.13
2022-11-16T11:59:18.522Z,55.35
2022-11-16T12:00:20.327Z,54.87
2022-11-16T12:01:37.811Z,55.17
2022-11-16T12:03:16.698Z,54.25
2022-11-16T12:04:44.520Z,53.83
2022-11-16T12:06:05.669Z,51.82
2022-11-16T12:07:26.831Z,53.75
2022-11-16T12:08:43.429Z,54.99
2022-11-16T12:10:09.150Z,53.77
2022-11-16T12:11:24.846Z,52.23
2022-11-16T12:12:38.157Z,52.02
2022-11-16T12:13:59.434Z,51.03
2022-11-16T12:15:31.141Z,49.81
2022-11-16T12:16:50.767Z,49.74
2022-11-16T12:18:02.671Z,49.91
2022-11-16T12:19:41.818Z,51.20
2022-11-16T12:21:21.085Z,50.34
2022-11-16T12:22:25.391Z,50.32
2022-11-16T12:23:47.883Z,50.87
2022-11-16T12:24:56.695Z,49.92
2022-11-16T12:26:21.387Z,51.80
2022-11-16T12:27:51.797Z,53.07
2022-11-16T12:29:16.659Z,52.55
2022-11-16T12:30:21.105Z,51.57
2022-11-16T12:31:25.511Z,51.20
2022-11-16T12:32:35.976Z,50.90
2022-11-16T12:34:01.276Z,51.00
2022-11-16T12:35:35.068Z,51.29
2022-11-16T12:36:51.232Z,51.81
2022-11-16T12:38:14.077Z,50.71
2022-11-16T12:39:24.316Z,50.23
2022-11-16T12:40:30.745Z,49.89
2022-11-16T12:41:44.456Z,49.27
2022-11-16T12:43:10.280Z,49.53
2022-11-16T12:44:21.807Z,48.71
2022-11-16T12:45:41.035Z,47.79
2022-11-16T12:47:00.757Z,47.46
2022-11-16T12:48:08.368Z,48.04
2022-11-16T12:49:18.614Z,47.89
2022-11-16T12:50:22.876Z,47.74
2022-11-16T12:51:33.371Z,47.76
2022-11-16T12:53:08.329Z,48.88
2022-11-16T12:54:35.925Z,49.26
2022-11-16T12:55:44.871Z,48.34
2022-11-16T12:57:18.008Z,48.67
2022-11-16T12:58:38.716Z,50.44
2022-11-16T12:59:58.520Z,50.50
2022-11-16T13:01:15.029Z,50.63
2022-11-16T13:02:53.470Z,50.02
2022-11-16T13:04:16.208Z,50.56
2022-11-16T13:05:44.695Z,51.24
2022-11-16T13:06:52.248Z,50.90
2022-11-16T13:08:00.548Z,51.01
2022-11-16T13:09:10.124Z,51.74
2022-11-16T13:10:19.792Z,51.68
2022-11-16T13:11:35.735Z,50.83
2022-11-16T13:12:38.649Z,51.42
2022-11-16T13:13:42.160Z,54.08
2022-11-16T13:14:48.002Z,55.61
2022-11-16T13:15:50.821Z,53.48
2022-11-16T13:16:53.652Z,52.94
2022-11-16T13:17:59.125Z,53.92
2022-11-16T13:19:03.954Z,55.49
2022-11-16T13:20:20.336Z,56.37
2022-11-16T13:21:34.761Z,55.90
2022-11-16T13:22:38.855Z,57.16
2022-11-16T13:23:55.498Z,57.74
2022-11-16T13:25:27.470Z,58.59
2022-11-16T13:26:43.347Z,59.04
2022-11-16T13:27:57.406Z,59.75
2022-11-16T13:29:04.588Z,60.30
2022-11-16T13:30:19.789Z,60.70
2022-11-16T13:32:02.720Z,61.29
2022-11-16T13:33:30.303Z,61.49
2022-11-16T13:34:33.812Z,61.70
2022-11-16T13:35:38.691Z,61.84
2022-11-16T13:36:45.270Z,62.48
2022-11-16T13:37:51.969Z,62.68
2022-11-16T13:38:56.835Z,62.96
2022-11-16T13:39:58.531Z,62.11
2022-11-16T13:41:30.151Z,62.39
2022-11-16T13:42:34.475Z,62.42
2022-11-16T13:43:35.885Z,62.96
2022-11-16T13:44:37.498Z,63.21
2022-11-16T13:45:42.788Z,63.11
2022-11-16T13:46:55.776Z,64.38
2022-11-16T13:47:59.067Z,63.47
2022-11-16T13:49:00.459Z,63.20
2022-11-16T13:50:10.315Z,62.49
2022-11-16T13:51:25.477Z,59.90
2022-11-16T13:53:31.858Z,58.74
2022-11-16T13:55:32.002Z,54.97
2022-11-16T13:56:48.816Z,54.26
2022-11-16T13:57:53.360Z,53.33
2022-11-16T13:58:58.164Z,55.05
2022-11-16T14:00:02.947Z,56.04
2022-11-16T14:01:10.609Z,56.51
2022-11-16T14:02:36.583Z,57.49
2022-11-16T14:03:40.012Z,58.23
2022-11-16T14:04:52.975Z,58.68
2022-11-16T14:05:54.738Z,60.49
2022-11-16T14:06:58.916Z,60.00
2022-11-16T14:08:20.291Z,59.67
2022-11-16T14:09:54.071Z,60.64
2022-11-16T14:10:59.155Z,61.12
2022-11-16T14:12:43.488Z,61.27
2022-11-16T14:13:48.313Z,61.67
2022-11-16T14:15:04.420Z,62.28
2022-11-16T14:16:15.012Z,62.00
2022-11-16T14:17:55.084Z,61.28
2022-11-16T14:19:00.148Z,59.18
2022-11-16T14:20:01.860Z,57.25
2022-11-16T14:21:24.903Z,56.50
2022-11-16T14:22:40.424Z,55.47
2022-11-16T14:24:13.339Z,55.59
2022-11-16T14:25:34.612Z,54.30
2022-11-16T14:26:57.663Z,53.80
2022-11-16T14:28:40.916Z,53.15
2022-11-16T14:30:05.791Z,53.96
2022-11-16T14:31:28.129Z,54.10
2022-11-16T14:32:46.706Z,53.81
2022-11-16T14:33:54.528Z,53.66
2022-11-16T14:34:58.275Z,53.41
2022-11-16T14:36:01.067Z,53.18
2022-11-16T14:37:03.343Z,53.81
2022-11-16T14:38:07.660Z,54.03
2022-11-16T14:39:14.598Z,54.11
2022-11-16T14:40:18.430Z,54.31
2022-11-16T14:41:22.873Z,54.57
2022-11-16T14:42:29.888Z,54.64
2022-11-16T14:43:42.470Z,54.74
2022-11-16T14:44:44.563Z,54.54
2022-11-16T14:45:52.252Z,55.20
2022-11-16T14:46:54.125Z,54.56
2022-11-16T14:48:18.905Z,54.66
2022-11-16T14:49:21.481Z,55.04
2022-11-16T14:50:24.624Z,54.80
2022-11-16T14:51:31.785Z,55.20
2022-11-16T14:52:47.660Z,56.25
2022-11-16T14:53:53.092Z,56.03
2022-11-16T14:55:00.148Z,55.53
2022-11-16T14:56:13.310Z,55.60
2022-11-16T14:57:22.998Z,55.71
2022-11-16T14:58:24.399Z,56.88
2022-11-16T14:59:26.367Z,56.77
2022-11-16T15:00:30.186Z,56.25
2022-11-16T15:01:35.608Z,55.95
2022-11-16T15:02:38.235Z,55.87
2022-11-16T15:04:11.284Z,55.96
2022-11-16T15:05:21.547Z,56.11
2022-11-16T15:06:25.955Z,57.05
2022-11-16T15:07:29.858Z,57.51
2022-11-16T15:08:54.405Z,59.57
2022-11-16T15:10:02.066Z,59.51
2022-11-16T15:11:07.173Z,60.54
2022-11-16T15:12:35.674Z,61.02
2022-11-16T15:13:37.614Z,61.54
2022-11-16T15:14:48.470Z,62.37
2022-11-16T15:16:07.119Z,62.74
2022-11-16T15:17:09.767Z,63.56
2022-11-16T15:18:18.304Z,63.73
2022-11-16T15:19:19.991Z,64.11
2022-11-16T15:20:24.360Z,64.17
2022-11-16T15:21:26.733Z,64.87
2022-11-16T15:22:39.817Z,65.18
2022-11-16T15:24:02.069Z,65.97
2022-11-16T15:25:50.543Z,66.88
2022-11-16T15:26:52.635Z,66.95
2022-11-16T15:27:55.956Z,67.32
2022-11-16T15:28:57.371Z,67.33
2022-11-16T15:30:02.288Z,67.91
2022-11-16T15:31:05.888Z,68.48
2022-11-16T15:32:15.388Z,68.59
2022-11-16T15:33:19.942Z,68.99
2022-11-16T15:34:25.769Z,68.97
2022-11-16T15:35:32.803Z,68.79
2022-11-16T15:36:40.998Z,68.88
2022-11-16T15:37:42.365Z,69.14
2022-11-16T15:38:43.892Z,68.76
2022-11-16T15:39:45.360Z,69.18
2022-11-16T15:40:51.846Z,70.24
2022-11-16T15:41:58.778Z,70.39
2022-11-16T15:43:05.884Z,70.08
2022-11-16T15:44:14.655Z,70.44
2022-11-16T15:45:25.598Z,70.38
2022-11-16T15:46:29.319Z,70.31
2022-11-16T15:47:30.813Z,70.54
2022-11-16T15:48:33.409Z,70.58
2022-11-16T15:49:40.621Z,70.65
2022-11-16T15:50:57.878Z,71.00
2022-11-16T15:52:01.854Z,71.19
2022-11-16T15:53:03.329Z,71.77
2022-11-16T15:54:24.483Z,71.58
2022-11-16T15:55:35.551Z,72.06
2022-11-16T15:56:41.706Z,72.24
2022-11-16T15:57:46.561Z,71.80
2022-11-16T15:58:49.359Z,72.10
2022-11-16T15:59:56.902Z,72.16
2022-11-16T16:00:59.315Z,72.37
2022-11-16T16:02:01.062Z,72.82
2022-11-16T16:03:07.717Z,72.84
2022-11-16T16:04:15.270Z,72.76
2022-11-16T16:05:23.928Z,73.19
2022-11-16T16:06:46.760Z,73.39
2022-11-16T16:07:48.624Z,74.32
2022-11-16T16:09:04.112Z,74.46
2022-11-16T16:10:22.881Z,74.50
2022-11-16T16:11:26.949Z,74.18
2022-11-16T16:12:29.179Z,74.66
2022-11-16T16:13:33.902Z,75.33
2022-11-16T16:14:35.585Z,75.05
2022-11-16T16:15:40.099Z,75.41
2022-11-16T16:16:41.483Z,75.05
2022-11-16T16:17:46.093Z,75.35
2022-11-16T16:18:47.723Z,75.13
2022-11-16T16:19:59.433Z,75.59
2022-11-16T16:21:02.873Z,75.33
2022-11-16T16:22:12.220Z,75.25
2022-11-16T16:23:18.019Z,75.46
2022-11-16T16:24:34.681Z,75.73
2022-11-16T16:25:36.996Z,75.97
2022-11-16T16:26:38.644Z,75.97
2022-11-16T16:27:44.263Z,76.86
2022-11-16T16:28:46.151Z,77.00
2022-11-16T16:29:49.602Z,77.36
2022-11-16T16:30:51.192Z,77.35
2022-11-16T16:31:52.557Z,77.43
2022-11-16T16:32:57.845Z,77.16
2022-11-16T16:33:59.454Z,77.54
2022-11-16T16:35:03.095Z,78.30
2022-11-16T16:36:04.943Z,77.67
2022-11-16T16:37:09.140Z,77.85
2022-11-16T16:38:13.744Z,77.56
2022-11-16T16:39:15.115Z,78.08
2022-11-16T16:40:17.624Z,77.63
2022-11-16T16:41:24.380Z,78.05
2022-11-16T16:42:26.625Z,78.71
2022-11-16T16:43:28.706Z,78.68
2022-11-16T16:44:30.040Z,78.58
2022-11-16T16:45:44.614Z,78.88
2022-11-16T16:46:45.947Z,78.73
2022-11-16T16:47:47.812Z,78.77
2022-11-16T16:48:49.128Z,78.71
2022-11-16T16:49:50.579Z,78.67
2022-11-16T16:50:55.507Z,78.16
2022-11-16T16:51:56.907Z,78.29
2022-11-16T16:52:58.299Z,78.47
2022-11-16T16:54:00.063Z,78.38
2022-11-16T16:55:01.434Z,77.92
2022-11-16T16:56:03.246Z,78.52
2022-11-16T16:57:04.880Z,78.54
2022-11-16T16:58:06.263Z,78.67
2022-11-16T16:59:07.858Z,78.82
2022-11-16T17:00:12.629Z,79.18
2022-11-16T17:01:14.092Z,79.05
2022-11-16T17:02:16.279Z,79.48
2022-11-16T17:03:20.500Z,79.17
2022-11-16T17:04:21.890Z,79.27
2022-11-16T17:05:23.285Z,78.78
2022-11-16T17:06:24.770Z,78.69
2022-11-16T17:07:26.358Z,78.39
2022-11-16T17:08:32.302Z,78.85
2022-11-16T17:09:33.662Z,78.46
2022-11-16T17:10:38.204Z,78.23
2022-11-16T17:11:39.841Z,78.13
2022-11-16T17:12:41.384Z,78.37
2022-11-16T17:13:46.771Z,78.27
2022-11-16T17:14:51.923Z,78.71
2022-11-16T17:15:53.301Z,78.79
2022-11-16T17:16:54.784Z,78.86
2022-11-16T17:17:58.123Z,77.95
2022-11-16T17:18:59.704Z,77.98
2022-11-16T17:20:01.064Z,78.19
2022-11-16T17:21:07.057Z,78.03
2022-11-16T17:22:08.564Z,78.47
2022-11-16T17:23:09.943Z,77.80
2022-11-16T17:24:11.669Z,78.25
2022-11-16T17:25:13.231Z,78.16
2022-11-16T17:26:14.642Z,78.15
2022-11-16T17:27:16.052Z,78.61
2022-11-16T17:28:17.538Z,77.94
2022-11-16T17:29:18.908Z,78.09
2022-11-16T17:30:20.292Z,78.04
2022-11-16T17:31:21.705Z,78.08
2022-11-16T17:32:23.073Z,77.83
2022-11-16T17:33:24.500Z,78.38
2022-11-16T17:34:25.864Z,78.92
2022-11-16T17:35:27.228Z,78.45
2022-11-16T17:36:28.562Z,78.32
2022-11-16T17:37:29.913Z,78.11
2022-11-16T17:38:34.920Z,78.16
2022-11-16T17:39:36.275Z,77.46
2022-11-16T17:40:40.934Z,77.60
2022-11-16T17:41:42.443Z,78.19
2022-11-16T17:42:43.795Z,78.41
2022-11-16T17:43:46.293Z,78.04
2022-11-16T17:44:47.639Z,77.57
2022-11-16T17:45:51.835Z,77.63
2022-11-16T17:46:53.200Z,77.69
2022-11-16T17:47:54.558Z,77.50
2022-11-16T17:48:56.319Z,77.44
2022-11-16T17:49:57.690Z,77.55
2022-11-16T17:50:59.121Z,77.33
2022-11-16T17:52:01.601Z,77.29
2022-11-16T17:53:05.983Z,77.55
2022-11-16T17:54:07.727Z,77.37
2022-11-16T17:55:09.204Z,77.25
2022-11-16T17:56:12.742Z,77.50
2022-11-16T17:57:14.294Z,77.30
